sensor_id;sensor_type;location;lat;lon;timestamp;P1;durP1;ratioP1;P2;durP2;ratioP2
68455;SDS011;55437;55.046;38.838;2022-11-15T00:00:30;9.18;;;2.58;;
68455;SDS011;55437;55.046;38.838;2022-11-15T00:03:15;9.05;;;2.70;;
68455;SDS011;55437;55.046;38.838;2022-11-15T00:06:02;8.55;;;2.67;;
68455;SDS011;55437;55.046;38.838;2022-11-15T00:08:47;9.45;;;2.20;;
68455;SDS011;55437;55.046;38.838;2022-11-15T00:11:31;9.93;;;2.40;;
68455;SDS011;55437;55.046;38.838;2022-11-15T00:14:15;13.95;;;2.53;;
68455;SDS011;55437;55.046;38.838;2022-11-15T00:17:00;7.88;;;2.72;;
68455;SDS011;55437;55.046;38.838;2022-11-15T00:19:44;7.25;;;3.28;;
68455;SDS011;55437;55.046;38.838;2022-11-15T00:22:34;6.72;;;2.38;;
68455;SDS011;55437;55.046;38.838;2022-11-15T00:25:18;8.65;;;2.53;;
68455;SDS011;55437;55.046;38.838;2022-11-15T00:28:02;10.48;;;2.50;;
68455;SDS011;55437;55.046;38.838;2022-11-15T00:30:46;7.60;;;2.70;;
68455;SDS011;55437;55.046;38.838;2022-11-15T00:33:31;7.40;;;2.70;;
68455;SDS011;55437;55.046;38.838;2022-11-15T00:36:15;7.35;;;2.47;;
68455;SDS011;55437;55.046;38.838;2022-11-15T00:38:59;8.10;;;3.17;;
68455;SDS011;55437;55.046;38.838;2022-11-15T00:41:44;13.70;;;2.55;;
68455;SDS011;55437;55.046;38.838;2022-11-15T00:44:28;6.40;;;2.38;;
68455;SDS011;55437;55.046;38.838;2022-11-15T00:47:12;7.68;;;2.03;;
68455;SDS011;55437;55.046;38.838;2022-11-15T00:49:56;6.43;;;2.60;;
68455;SDS011;55437;55.046;38.838;2022-11-15T00:52:41;6.75;;;2.70;;
68455;SDS011;55437;55.046;38.838;2022-11-15T00:55:26;6.95;;;2.22;;
68455;SDS011;55437;55.046;38.838;2022-11-15T00:58:10;6.53;;;2.60;;
68455;SDS011;55437;55.046;38.838;2022-11-15T01:00:54;8.57;;;1.92;;
68455;SDS011;55437;55.046;38.838;2022-11-15T01:03:39;8.82;;;2.35;;
68455;SDS011;55437;55.046;38.838;2022-11-15T01:06:25;6.57;;;2.50;;
68455;SDS011;55437;55.046;38.838;2022-11-15T01:09:09;6.00;;;2.25;;
68455;SDS011;55437;55.046;38.838;2022-11-15T01:11:53;7.00;;;2.05;;
68455;SDS011;55437;55.046;38.838;2022-11-15T01:14:37;5.38;;;2.22;;
68455;SDS011;55437;55.046;38.838;2022-11-15T01:17:21;16.48;;;2.60;;
68455;SDS011;55437;55.046;38.838;2022-11-15T01:20:06;7.45;;;2.63;;
68455;SDS011;55437;55.046;38.838;2022-11-15T01:22:50;9.02;;;3.00;;
68455;SDS011;55437;55.046;38.838;2022-11-15T01:25:35;7.57;;;2.55;;
68455;SDS011;55437;55.046;38.838;2022-11-15T01:28:19;9.02;;;2.30;;
68455;SDS011;55437;55.046;38.838;2022-11-15T01:31:05;6.03;;;2.22;;
68455;SDS011;55437;55.046;38.838;2022-11-15T01:33:50;6.15;;;2.05;;
68455;SDS011;55437;55.046;38.838;2022-11-15T01:36:34;6.57;;;2.17;;
68455;SDS011;55437;55.046;38.838;2022-11-15T01:39:19;11.07;;;2.42;;
68455;SDS011;55437;55.046;38.838;2022-11-15T01:42:03;9.52;;;2.90;;
68455;SDS011;55437;55.046;38.838;2022-11-15T01:44:48;6.72;;;2.25;;
68455;SDS011;55437;55.046;38.838;2022-11-15T01:47:33;9.80;;;2.90;;
68455;SDS011;55437;55.046;38.838;2022-11-15T01:50:23;8.50;;;2.70;;
68455;SDS011;55437;55.046;38.838;2022-11-15T01:53:13;5.97;;;1.92;;
68455;SDS011;55437;55.046;38.838;2022-11-15T01:55:58;9.57;;;2.38;;
68455;SDS011;55437;55.046;38.838;2022-11-15T01:58:45;6.22;;;2.08;;
68455;SDS011;55437;55.046;38.838;2022-11-15T02:01:30;7.28;;;2.30;;
68455;SDS011;55437;55.046;38.838;2022-11-15T02:04:17;5.20;;;1.98;;
68455;SDS011;55437;55.046;38.838;2022-11-15T02:07:06;5.28;;;1.98;;
68455;SDS011;55437;55.046;38.838;2022-11-15T02:09:53;6.47;;;1.85;;
68455;SDS011;55437;55.046;38.838;2022-11-15T02:12:38;7.65;;;1.95;;
68455;SDS011;55437;55.046;38.838;2022-11-15T02:15:24;10.07;;;2.22;;
68455;SDS011;55437;55.046;38.838;2022-11-15T02:34:04;6.82;;;2.75;;
68455;SDS011;55437;55.046;38.838;2022-11-15T02:43:10;6.70;;;1.88;;
68455;SDS011;55437;55.046;38.838;2022-11-15T02:46:38;5.22;;;2.13;;
68455;SDS011;55437;55.046;38.838;2022-11-15T02:49:50;7.38;;;2.75;;
68455;SDS011;55437;55.046;38.838;2022-11-15T02:52:37;8.35;;;2.30;;
68455;SDS011;55437;55.046;38.838;2022-11-15T02:58:48;7.15;;;2.08;;
68455;SDS011;55437;55.046;38.838;2022-11-15T03:07:35;8.82;;;2.15;;
68455;SDS011;55437;55.046;38.838;2022-11-15T03:10:22;6.82;;;1.98;;
68455;SDS011;55437;55.046;38.838;2022-11-15T03:13:26;6.90;;;2.28;;
68455;SDS011;55437;55.046;38.838;2022-11-15T03:16:36;6.45;;;2.00;;
68455;SDS011;55437;55.046;38.838;2022-11-15T03:22:20;9.85;;;2.17;;
68455;SDS011;55437;55.046;38.838;2022-11-15T03:25:07;6.72;;;2.13;;
68455;SDS011;55437;55.046;38.838;2022-11-15T03:27:55;6.95;;;2.15;;
68455;SDS011;55437;55.046;38.838;2022-11-15T03:30:45;7.32;;;2.05;;
68455;SDS011;55437;55.046;38.838;2022-11-15T03:33:36;8.65;;;3.42;;
68455;SDS011;55437;55.046;38.838;2022-11-15T03:36:23;9.30;;;2.45;;
68455;SDS011;55437;55.046;38.838;2022-11-15T03:39:09;8.05;;;3.00;;
68455;SDS011;55437;55.046;38.838;2022-11-15T03:42:04;7.75;;;2.30;;
68455;SDS011;55437;55.046;38.838;2022-11-15T03:45:23;7.10;;;2.45;;
68455;SDS011;55437;55.046;38.838;2022-11-15T03:48:20;9.07;;;2.25;;
68455;SDS011;55437;55.046;38.838;2022-11-15T03:51:08;5.82;;;1.85;;
68455;SDS011;55437;55.046;38.838;2022-11-15T03:53:53;7.60;;;2.50;;
68455;SDS011;55437;55.046;38.838;2022-11-15T03:56:37;8.55;;;2.30;;
68455;SDS011;55437;55.046;38.838;2022-11-15T03:59:21;6.82;;;2.38;;
68455;SDS011;55437;55.046;38.838;2022-11-15T04:02:06;7.72;;;2.67;;
68455;SDS011;55437;55.046;38.838;2022-11-15T04:04:50;8.90;;;1.98;;
68455;SDS011;55437;55.046;38.838;2022-11-15T04:07:34;11.98;;;3.55;;
68455;SDS011;55437;55.046;38.838;2022-11-15T04:10:18;16.50;;;3.45;;
68455;SDS011;55437;55.046;38.838;2022-11-15T04:13:02;11.93;;;4.20;;
68455;SDS011;55437;55.046;38.838;2022-11-15T04:15:47;12.48;;;4.60;;
68455;SDS011;55437;55.046;38.838;2022-11-15T04:18:31;10.18;;;3.38;;
68455;SDS011;55437;55.046;38.838;2022-11-15T04:21:15;7.82;;;2.60;;
68455;SDS011;55437;55.046;38.838;2022-11-15T04:24:18;9.77;;;3.47;;
68455;SDS011;55437;55.046;38.838;2022-11-15T04:27:02;11.02;;;3.45;;
68455;SDS011;55437;55.046;38.838;2022-11-15T04:29:49;12.57;;;3.50;;
68455;SDS011;55437;55.046;38.838;2022-11-15T04:32:33;10.45;;;3.28;;
68455;SDS011;55437;55.046;38.838;2022-11-15T04:35:18;7.82;;;2.42;;
68455;SDS011;55437;55.046;38.838;2022-11-15T04:38:03;15.00;;;2.88;;
68455;SDS011;55437;55.046;38.838;2022-11-15T04:40:49;7.57;;;2.63;;
68455;SDS011;55437;55.046;38.838;2022-11-15T04:43:33;8.20;;;3.00;;
68455;SDS011;55437;55.046;38.838;2022-11-15T04:46:17;7.78;;;3.38;;
68455;SDS011;55437;55.046;38.838;2022-11-15T04:49:01;22.17;;;3.88;;
68455;SDS011;55437;55.046;38.838;2022-11-15T04:51:46;24.98;;;3.60;;
68455;SDS011;55437;55.046;38.838;2022-11-15T04:54:30;17.90;;;3.50;;
68455;SDS011;55437;55.046;38.838;2022-11-15T04:57:15;7.30;;;2.80;;
68455;SDS011;55437;55.046;38.838;2022-11-15T04:59:59;13.15;;;2.80;;
68455;SDS011;55437;55.046;38.838;2022-11-15T05:02:43;10.52;;;2.65;;
68455;SDS011;55437;55.046;38.838;2022-11-15T05:05:46;13.25;;;3.78;;
68455;SDS011;55437;55.046;38.838;2022-11-15T05:08:30;9.20;;;3.78;;
68455;SDS011;55437;55.046;38.838;2022-11-15T05:11:15;19.80;;;3.80;;
68455;SDS011;55437;55.046;38.838;2022-11-15T05:13:59;9.50;;;4.10;;
68455;SDS011;55437;55.046;38.838;2022-11-15T05:16:43;14.10;;;3.92;;
68455;SDS011;55437;55.046;38.838;2022-11-15T05:19:28;14.60;;;3.53;;
68455;SDS011;55437;55.046;38.838;2022-11-15T05:22:12;41.17;;;6.72;;
68455;SDS011;55437;55.046;38.838;2022-11-15T05:24:56;26.83;;;3.35;;
68455;SDS011;55437;55.046;38.838;2022-11-15T05:27:40;14.00;;;3.38;;
68455;SDS011;55437;55.046;38.838;2022-11-15T05:30:24;13.23;;;3.05;;
68455;SDS011;55437;55.046;38.838;2022-11-15T05:33:09;12.55;;;3.53;;
68455;SDS011;55437;55.046;38.838;2022-11-15T05:35:57;12.57;;;3.47;;
68455;SDS011;55437;55.046;38.838;2022-11-15T05:38:51;13.60;;;3.20;;
68455;SDS011;55437;55.046;38.838;2022-11-15T05:41:36;12.23;;;2.92;;
68455;SDS011;55437;55.046;38.838;2022-11-15T05:44:30;8.68;;;3.03;;
68455;SDS011;55437;55.046;38.838;2022-11-15T05:47:19;7.93;;;2.42;;
68455;SDS011;55437;55.046;38.838;2022-11-15T05:50:08;15.60;;;2.90;;
68455;SDS011;55437;55.046;38.838;2022-11-15T05:52:56;11.45;;;2.58;;
68455;SDS011;55437;55.046;38.838;2022-11-15T05:55:41;10.18;;;3.25;;
68455;SDS011;55437;55.046;38.838;2022-11-15T05:58:25;11.73;;;4.32;;
68455;SDS011;55437;55.046;38.838;2022-11-15T06:01:09;10.68;;;3.30;;
68455;SDS011;55437;55.046;38.838;2022-11-15T06:03:54;9.93;;;3.50;;
68455;SDS011;55437;55.046;38.838;2022-11-15T06:06:39;12.07;;;3.75;;
68455;SDS011;55437;55.046;38.838;2022-11-15T06:09:23;8.30;;;2.85;;
68455;SDS011;55437;55.046;38.838;2022-11-15T06:12:07;9.40;;;3.08;;
68455;SDS011;55437;55.046;38.838;2022-11-15T06:14:51;9.25;;;3.50;;
68455;SDS011;55437;55.046;38.838;2022-11-15T06:17:35;8.98;;;3.03;;
68455;SDS011;55437;55.046;38.838;2022-11-15T06:20:19;7.10;;;2.90;;
68455;SDS011;55437;55.046;38.838;2022-11-15T06:23:04;7.97;;;3.25;;
68455;SDS011;55437;55.046;38.838;2022-11-15T06:25:48;11.35;;;3.10;;
68455;SDS011;55437;55.046;38.838;2022-11-15T06:28:32;10.20;;;3.00;;
68455;SDS011;55437;55.046;38.838;2022-11-15T06:31:17;11.45;;;3.63;;
68455;SDS011;55437;55.046;38.838;2022-11-15T06:34:01;10.52;;;3.42;;
68455;SDS011;55437;55.046;38.838;2022-11-15T06:36:46;9.35;;;3.75;;
68455;SDS011;55437;55.046;38.838;2022-11-15T06:39:30;8.02;;;2.58;;
68455;SDS011;55437;55.046;38.838;2022-11-15T06:42:14;7.30;;;3.20;;
68455;SDS011;55437;55.046;38.838;2022-11-15T06:44:58;8.02;;;3.13;;
68455;SDS011;55437;55.046;38.838;2022-11-15T06:47:46;9.35;;;3.10;;
68455;SDS011;55437;55.046;38.838;2022-11-15T06:50:33;9.00;;;3.75;;
68455;SDS011;55437;55.046;38.838;2022-11-15T06:53:17;7.25;;;2.35;;
68455;SDS011;55437;55.046;38.838;2022-11-15T06:56:05;8.73;;;2.67;;
68455;SDS011;55437;55.046;38.838;2022-11-15T06:58:50;11.32;;;3.63;;
68455;SDS011;55437;55.046;38.838;2022-11-15T07:01:34;14.60;;;3.47;;
68455;SDS011;55437;55.046;38.838;2022-11-15T07:04:19;7.50;;;2.97;;
68455;SDS011;55437;55.046;38.838;2022-11-15T07:07:04;7.43;;;3.00;;
68455;SDS011;55437;55.046;38.838;2022-11-15T07:09:51;10.15;;;3.20;;
68455;SDS011;55437;55.046;38.838;2022-11-15T07:12:35;9.05;;;2.95;;
68455;SDS011;55437;55.046;38.838;2022-11-15T07:15:20;10.20;;;3.13;;
68455;SDS011;55437;55.046;38.838;2022-11-15T07:18:06;10.10;;;3.10;;
68455;SDS011;55437;55.046;38.838;2022-11-15T07:20:50;7.57;;;2.63;;
68455;SDS011;55437;55.046;38.838;2022-11-15T07:23:38;8.68;;;2.80;;
68455;SDS011;55437;55.046;38.838;2022-11-15T07:26:23;8.60;;;3.10;;
68455;SDS011;55437;55.046;38.838;2022-11-15T07:29:10;8.93;;;2.72;;
68455;SDS011;55437;55.046;38.838;2022-11-15T07:31:54;9.60;;;3.17;;
68455;SDS011;55437;55.046;38.838;2022-11-15T07:34:41;8.77;;;2.83;;
68455;SDS011;55437;55.046;38.838;2022-11-15T07:37:25;7.88;;;2.60;;
68455;SDS011;55437;55.046;38.838;2022-11-15T07:40:10;10.50;;;3.38;;
68455;SDS011;55437;55.046;38.838;2022-11-15T07:43:04;10.88;;;3.05;;
68455;SDS011;55437;55.046;38.838;2022-11-15T07:45:49;8.48;;;2.38;;
68455;SDS011;55437;55.046;38.838;2022-11-15T07:48:37;6.32;;;2.15;;
68455;SDS011;55437;55.046;38.838;2022-11-15T07:51:23;8.63;;;2.20;;
68455;SDS011;55437;55.046;38.838;2022-11-15T07:54:11;8.27;;;3.42;;
68455;SDS011;55437;55.046;38.838;2022-11-15T07:56:55;7.30;;;2.25;;
68455;SDS011;55437;55.046;38.838;2022-11-15T07:59:40;7.53;;;1.85;;
68455;SDS011;55437;55.046;38.838;2022-11-15T08:02:24;8.10;;;2.00;;
68455;SDS011;55437;55.046;38.838;2022-11-15T08:05:08;13.35;;;2.28;;
68455;SDS011;55437;55.046;38.838;2022-11-15T08:07:54;6.85;;;2.40;;
68455;SDS011;55437;55.046;38.838;2022-11-15T08:10:39;8.55;;;2.60;;
68455;SDS011;55437;55.046;38.838;2022-11-15T08:13:24;8.50;;;2.00;;
68455;SDS011;55437;55.046;38.838;2022-11-15T08:16:08;7.47;;;2.03;;
68455;SDS011;55437;55.046;38.838;2022-11-15T08:18:54;8.95;;;2.65;;
68455;SDS011;55437;55.046;38.838;2022-11-15T08:21:38;6.50;;;2.30;;
68455;SDS011;55437;55.046;38.838;2022-11-15T08:24:22;7.03;;;2.13;;
68455;SDS011;55437;55.046;38.838;2022-11-15T08:27:06;7.05;;;2.28;;
68455;SDS011;55437;55.046;38.838;2022-11-15T08:29:58;8.23;;;2.08;;
68455;SDS011;55437;55.046;38.838;2022-11-15T08:32:42;7.25;;;1.90;;
68455;SDS011;55437;55.046;38.838;2022-11-15T08:35:26;5.97;;;1.92;;
68455;SDS011;55437;55.046;38.838;2022-11-15T08:38:12;6.05;;;1.70;;
68455;SDS011;55437;55.046;38.838;2022-11-15T08:41:01;7.30;;;2.05;;
68455;SDS011;55437;55.046;38.838;2022-11-15T08:43:47;5.38;;;1.85;;
68455;SDS011;55437;55.046;38.838;2022-11-15T08:46:31;9.30;;;2.60;;
68455;SDS011;55437;55.046;38.838;2022-11-15T08:49:19;7.30;;;2.00;;
68455;SDS011;55437;55.046;38.838;2022-11-15T08:52:03;8.57;;;2.92;;
68455;SDS011;55437;55.046;38.838;2022-11-15T08:54:47;10.13;;;2.05;;
68455;SDS011;55437;55.046;38.838;2022-11-15T08:57:32;6.00;;;1.88;;
68455;SDS011;55437;55.046;38.838;2022-11-15T09:00:16;9.48;;;2.33;;
68455;SDS011;55437;55.046;38.838;2022-11-15T09:03:03;10.43;;;2.47;;
68455;SDS011;55437;55.046;38.838;2022-11-15T09:05:48;8.93;;;2.53;;
68455;SDS011;55437;55.046;38.838;2022-11-15T09:08:35;8.75;;;2.63;;
68455;SDS011;55437;55.046;38.838;2022-11-15T09:11:21;9.23;;;2.38;;
68455;SDS011;55437;55.046;38.838;2022-11-15T09:14:14;6.25;;;2.15;;
68455;SDS011;55437;55.046;38.838;2022-11-15T09:16:59;8.93;;;2.28;;
68455;SDS011;55437;55.046;38.838;2022-11-15T09:19:44;7.72;;;2.92;;
68455;SDS011;55437;55.046;38.838;2022-11-15T09:22:28;7.95;;;2.28;;
68455;SDS011;55437;55.046;38.838;2022-11-15T09:25:12;6.25;;;2.00;;
68455;SDS011;55437;55.046;38.838;2022-11-15T09:27:59;7.45;;;1.88;;
68455;SDS011;55437;55.046;38.838;2022-11-15T09:30:44;7.13;;;1.80;;
68455;SDS011;55437;55.046;38.838;2022-11-15T09:33:28;7.60;;;1.92;;
68455;SDS011;55437;55.046;38.838;2022-11-15T09:36:13;9.23;;;1.88;;
68455;SDS011;55437;55.046;38.838;2022-11-15T09:38:57;8.27;;;2.40;;
68455;SDS011;55437;55.046;38.838;2022-11-15T09:44:40;10.70;;;2.13;;
68455;SDS011;55437;55.046;38.838;2022-11-15T09:50:46;8.27;;;2.60;;
68455;SDS011;55437;55.046;38.838;2022-11-15T09:56:18;8.02;;;2.00;;
68455;SDS011;55437;55.046;38.838;2022-11-15T10:04:33;4.97;;;1.50;;
68455;SDS011;55437;55.046;38.838;2022-11-15T10:07:16;8.43;;;2.90;;
68455;SDS011;55437;55.046;38.838;2022-11-15T10:12:41;6.55;;;1.75;;
68455;SDS011;55437;55.046;38.838;2022-11-15T10:15:14;7.75;;;2.05;;
68455;SDS011;55437;55.046;38.838;2022-11-15T10:23:16;8.77;;;2.83;;
68455;SDS011;55437;55.046;38.838;2022-11-15T10:25:44;6.50;;;2.53;;
68455;SDS011;55437;55.046;38.838;2022-11-15T10:28:17;8.98;;;2.25;;
68455;SDS011;55437;55.046;38.838;2022-11-15T10:30:54;6.18;;;2.00;;
68455;SDS011;55437;55.046;38.838;2022-11-15T10:33:36;8.70;;;1.83;;
68455;SDS011;55437;55.046;38.838;2022-11-15T10:41:21;7.25;;;2.13;;
68455;SDS011;55437;55.046;38.838;2022-11-15T10:46:33;8.07;;;2.20;;
68455;SDS011;55437;55.046;38.838;2022-11-15T10:51:58;8.63;;;2.15;;
68455;SDS011;55437;55.046;38.838;2022-11-15T10:54:28;10.48;;;2.80;;
68455;SDS011;55437;55.046;38.838;2022-11-15T10:56:59;8.75;;;2.10;;
68455;SDS011;55437;55.046;38.838;2022-11-15T10:59:30;7.55;;;2.40;;
68455;SDS011;55437;55.046;38.838;2022-11-15T11:01:58;13.68;;;2.55;;
68455;SDS011;55437;55.046;38.838;2022-11-15T11:04:25;8.40;;;2.47;;
68455;SDS011;55437;55.046;38.838;2022-11-15T11:06:54;8.75;;;2.33;;
68455;SDS011;55437;55.046;38.838;2022-11-15T11:12:02;10.20;;;2.55;;
68455;SDS011;55437;55.046;38.838;2022-11-15T11:14:34;9.32;;;3.20;;
68455;SDS011;55437;55.046;38.838;2022-11-15T11:28:14;9.20;;;2.47;;
68455;SDS011;55437;55.046;38.838;2022-11-15T11:33:33;7.38;;;2.60;;
68455;SDS011;55437;55.046;38.838;2022-11-15T11:44:22;11.25;;;2.53;;
68455;SDS011;55437;55.046;38.838;2022-11-15T11:46:56;6.93;;;2.40;;
68455;SDS011;55437;55.046;38.838;2022-11-15T11:52:56;7.20;;;2.08;;
68455;SDS011;55437;55.046;38.838;2022-11-15T11:55:34;8.18;;;2.28;;
68455;SDS011;55437;55.046;38.838;2022-11-15T12:00:43;11.27;;;2.60;;
68455;SDS011;55437;55.046;38.838;2022-11-15T12:14:40;8.18;;;3.00;;
68455;SDS011;55437;55.046;38.838;2022-11-15T12:17:11;10.20;;;2.55;;
68455;SDS011;55437;55.046;38.838;2022-11-15T12:19:38;7.90;;;2.53;;
68455;SDS011;55437;55.046;38.838;2022-11-15T12:25:14;8.18;;;2.42;;
68455;SDS011;55437;55.046;38.838;2022-11-15T12:27:57;9.82;;;2.55;;
68455;SDS011;55437;55.046;38.838;2022-11-15T12:30:24;6.15;;;2.58;;
68455;SDS011;55437;55.046;38.838;2022-11-15T12:32:57;10.10;;;2.50;;
68455;SDS011;55437;55.046;38.838;2022-11-15T12:35:26;7.25;;;2.10;;
68455;SDS011;55437;55.046;38.838;2022-11-15T12:40:30;7.88;;;2.38;;
68455;SDS011;55437;55.046;38.838;2022-11-15T12:45:36;17.98;;;2.70;;
68455;SDS011;55437;55.046;38.838;2022-11-15T13:06:46;10.90;;;2.10;;
68455;SDS011;55437;55.046;38.838;2022-11-15T13:11:58;6.32;;;1.73;;
68455;SDS011;55437;55.046;38.838;2022-11-15T13:14:42;7.93;;;2.03;;
68455;SDS011;55437;55.046;38.838;2022-11-15T13:19:51;17.13;;;3.42;;
68455;SDS011;55437;55.046;38.838;2022-11-15T13:22:25;15.45;;;4.97;;
68455;SDS011;55437;55.046;38.838;2022-11-15T13:30:48;8.63;;;3.13;;
68455;SDS011;55437;55.046;38.838;2022-11-15T13:39:03;11.30;;;2.78;;
68455;SDS011;55437;55.046;38.838;2022-11-15T13:41:49;13.45;;;2.58;;
68455;SDS011;55437;55.046;38.838;2022-11-15T13:44:26;8.73;;;1.83;;
68455;SDS011;55437;55.046;38.838;2022-11-15T13:47:04;9.20;;;1.95;;
68455;SDS011;55437;55.046;38.838;2022-11-15T13:49:31;7.85;;;2.80;;
68455;SDS011;55437;55.046;38.838;2022-11-15T13:51:59;8.15;;;2.20;;
68455;SDS011;55437;55.046;38.838;2022-11-15T13:54:35;9.48;;;2.15;;
68455;SDS011;55437;55.046;38.838;2022-11-15T13:57:12;7.80;;;2.30;;
68455;SDS011;55437;55.046;38.838;2022-11-15T14:02:25;11.00;;;2.85;;
68455;SDS011;55437;55.046;38.838;2022-11-15T14:04:58;12.55;;;2.88;;
68455;SDS011;55437;55.046;38.838;2022-11-15T14:07:53;7.13;;;1.95;;
68455;SDS011;55437;55.046;38.838;2022-11-15T14:10:36;6.10;;;2.13;;
68455;SDS011;55437;55.046;38.838;2022-11-15T14:13:03;10.95;;;2.35;;
68455;SDS011;55437;55.046;38.838;2022-11-15T14:15:35;9.45;;;2.40;;
68455;SDS011;55437;55.046;38.838;2022-11-15T14:18:03;6.97;;;2.35;;
68455;SDS011;55437;55.046;38.838;2022-11-15T14:20:35;7.90;;;2.33;;
68455;SDS011;55437;55.046;38.838;2022-11-15T14:23:04;9.15;;;2.67;;
68455;SDS011;55437;55.046;38.838;2022-11-15T14:25:51;9.43;;;1.83;;
68455;SDS011;55437;55.046;38.838;2022-11-15T14:30:51;8.50;;;2.13;;
68455;SDS011;55437;55.046;38.838;2022-11-15T14:33:27;7.22;;;2.63;;
68455;SDS011;55437;55.046;38.838;2022-11-15T14:36:16;12.88;;;3.00;;
68455;SDS011;55437;55.046;38.838;2022-11-15T14:38:44;9.73;;;2.65;;
68455;SDS011;55437;55.046;38.838;2022-11-15T14:41:13;8.35;;;2.75;;
68455;SDS011;55437;55.046;38.838;2022-11-15T14:43:42;8.27;;;2.97;;
68455;SDS011;55437;55.046;38.838;2022-11-15T14:46:08;8.85;;;3.03;;
68455;SDS011;55437;55.046;38.838;2022-11-15T14:48:33;8.00;;;2.25;;
68455;SDS011;55437;55.046;38.838;2022-11-15T14:50:59;7.10;;;2.40;;
68455;SDS011;55437;55.046;38.838;2022-11-15T14:53:25;8.52;;;2.63;;
68455;SDS011;55437;55.046;38.838;2022-11-15T14:55:51;7.65;;;2.45;;
68455;SDS011;55437;55.046;38.838;2022-11-15T14:58:17;9.10;;;2.42;;
68455;SDS011;55437;55.046;38.838;2022-11-15T15:00:42;8.20;;;2.70;;
68455;SDS011;55437;55.046;38.838;2022-11-15T15:03:08;11.48;;;2.45;;
68455;SDS011;55437;55.046;38.838;2022-11-15T15:05:38;8.68;;;1.92;;
68455;SDS011;55437;55.046;38.838;2022-11-15T15:08:08;9.30;;;2.05;;
68455;SDS011;55437;55.046;38.838;2022-11-15T15:10:36;10.82;;;2.30;;
68455;SDS011;55437;55.046;38.838;2022-11-15T15:13:04;10.07;;;2.40;;
68455;SDS011;55437;55.046;38.838;2022-11-15T15:15:34;12.38;;;5.03;;
68455;SDS011;55437;55.046;38.838;2022-11-15T15:18:02;8.75;;;2.33;;
68455;SDS011;55437;55.046;38.838;2022-11-15T15:20:30;10.90;;;3.45;;
68455;SDS011;55437;55.046;38.838;2022-11-15T15:22:57;11.30;;;2.40;;
68455;SDS011;55437;55.046;38.838;2022-11-15T15:27:52;8.43;;;2.78;;
68455;SDS011;55437;55.046;38.838;2022-11-15T15:30:19;9.98;;;3.00;;
68455;SDS011;55437;55.046;38.838;2022-11-15T15:32:45;9.15;;;2.60;;
68455;SDS011;55437;55.046;38.838;2022-11-15T15:35:11;11.65;;;2.97;;
68455;SDS011;55437;55.046;38.838;2022-11-15T15:37:38;14.93;;;3.58;;
68455;SDS011;55437;55.046;38.838;2022-11-15T15:40:08;9.05;;;3.60;;
68455;SDS011;55437;55.046;38.838;2022-11-15T15:42:38;17.45;;;3.72;;
68455;SDS011;55437;55.046;38.838;2022-11-15T15:45:04;16.48;;;3.35;;
68455;SDS011;55437;55.046;38.838;2022-11-15T15:47:30;12.13;;;2.95;;
68455;SDS011;55437;55.046;38.838;2022-11-15T15:49:56;12.20;;;3.55;;
68455;SDS011;55437;55.046;38.838;2022-11-15T15:52:21;10.18;;;3.17;;
68455;SDS011;55437;55.046;38.838;2022-11-15T15:54:47;9.50;;;3.53;;
68455;SDS011;55437;55.046;38.838;2022-11-15T15:57:13;11.50;;;3.08;;
68455;SDS011;55437;55.046;38.838;2022-11-15T15:59:39;9.82;;;2.95;;
68455;SDS011;55437;55.046;38.838;2022-11-15T16:02:05;10.25;;;3.55;;
68455;SDS011;55437;55.046;38.838;2022-11-15T16:04:31;11.50;;;3.70;;
68455;SDS011;55437;55.046;38.838;2022-11-15T16:07:00;10.68;;;3.80;;
68455;SDS011;55437;55.046;38.838;2022-11-15T16:09:26;10.68;;;3.85;;
68455;SDS011;55437;55.046;38.838;2022-11-15T16:12:10;11.05;;;3.95;;
68455;SDS011;55437;55.046;38.838;2022-11-15T16:14:36;8.95;;;3.03;;
68455;SDS011;55437;55.046;38.838;2022-11-15T16:17:02;10.80;;;2.95;;
68455;SDS011;55437;55.046;38.838;2022-11-15T16:19:28;9.77;;;3.40;;
68455;SDS011;55437;55.046;38.838;2022-11-15T16:21:54;11.75;;;3.38;;
68455;SDS011;55437;55.046;38.838;2022-11-15T16:24:20;11.43;;;5.20;;
68455;SDS011;55437;55.046;38.838;2022-11-15T16:26:47;11.23;;;5.03;;
68455;SDS011;55437;55.046;38.838;2022-11-15T16:29:15;12.00;;;3.80;;
68455;SDS011;55437;55.046;38.838;2022-11-15T16:31:41;12.02;;;3.58;;
68455;SDS011;55437;55.046;38.838;2022-11-15T16:34:07;11.70;;;4.05;;
68455;SDS011;55437;55.046;38.838;2022-11-15T16:36:33;10.15;;;3.05;;
68455;SDS011;55437;55.046;38.838;2022-11-15T16:38:59;8.50;;;3.58;;
68455;SDS011;55437;55.046;38.838;2022-11-15T16:41:29;9.60;;;2.97;;
68455;SDS011;55437;55.046;38.838;2022-11-15T16:43:55;14.85;;;4.00;;
68455;SDS011;55437;55.046;38.838;2022-11-15T16:46:25;12.93;;;4.30;;
68455;SDS011;55437;55.046;38.838;2022-11-15T16:48:52;11.18;;;4.15;;
68455;SDS011;55437;55.046;38.838;2022-11-15T16:51:18;8.45;;;3.70;;
68455;SDS011;55437;55.046;38.838;2022-11-15T16:53:44;11.30;;;5.32;;
68455;SDS011;55437;55.046;38.838;2022-11-15T16:56:16;14.07;;;4.38;;
68455;SDS011;55437;55.046;38.838;2022-11-15T16:58:50;13.23;;;4.28;;
68455;SDS011;55437;55.046;38.838;2022-11-15T17:01:18;10.63;;;3.72;;
68455;SDS011;55437;55.046;38.838;2022-11-15T17:03:51;12.13;;;3.35;;
68455;SDS011;55437;55.046;38.838;2022-11-15T17:06:18;12.68;;;3.63;;
68455;SDS011;55437;55.046;38.838;2022-11-15T17:08:46;11.52;;;3.80;;
68455;SDS011;55437;55.046;38.838;2022-11-15T17:11:16;11.13;;;3.38;;
68455;SDS011;55437;55.046;38.838;2022-11-15T17:13:45;10.70;;;3.83;;
68455;SDS011;55437;55.046;38.838;2022-11-15T17:16:12;13.85;;;3.75;;
68455;SDS011;55437;55.046;38.838;2022-11-15T17:18:39;9.55;;;3.58;;
68455;SDS011;55437;55.046;38.838;2022-11-15T17:21:13;12.38;;;3.95;;
68455;SDS011;55437;55.046;38.838;2022-11-15T17:23:41;11.07;;;3.55;;
68455;SDS011;55437;55.046;38.838;2022-11-15T17:26:07;10.48;;;3.50;;
68455;SDS011;55437;55.046;38.838;2022-11-15T17:28:35;10.80;;;4.18;;
68455;SDS011;55437;55.046;38.838;2022-11-15T17:31:05;9.68;;;3.45;;
68455;SDS011;55437;55.046;38.838;2022-11-15T17:33:35;11.52;;;3.80;;
68455;SDS011;55437;55.046;38.838;2022-11-15T17:36:03;9.68;;;3.88;;
68455;SDS011;55437;55.046;38.838;2022-11-15T17:38:31;15.55;;;4.50;;
68455;SDS011;55437;55.046;38.838;2022-11-15T17:41:08;10.75;;;3.78;;
68455;SDS011;55437;55.046;38.838;2022-11-15T17:43:36;12.00;;;4.10;;
68455;SDS011;55437;55.046;38.838;2022-11-15T17:46:05;10.88;;;4.20;;
68455;SDS011;55437;55.046;38.838;2022-11-15T17:48:33;9.70;;;4.38;;
68455;SDS011;55437;55.046;38.838;2022-11-15T17:51:02;12.20;;;4.57;;
68455;SDS011;55437;55.046;38.838;2022-11-15T17:53:33;12.95;;;4.40;;
68455;SDS011;55437;55.046;38.838;2022-11-15T17:56:04;13.48;;;4.05;;
68455;SDS011;55437;55.046;38.838;2022-11-15T17:58:36;14.70;;;5.03;;
68455;SDS011;55437;55.046;38.838;2022-11-15T18:01:15;15.05;;;4.82;;
68455;SDS011;55437;55.046;38.838;2022-11-15T18:03:44;10.05;;;4.43;;
68455;SDS011;55437;55.046;38.838;2022-11-15T18:06:10;16.15;;;5.20;;
68455;SDS011;55437;55.046;38.838;2022-11-15T18:08:37;12.52;;;4.80;;
68455;SDS011;55437;55.046;38.838;2022-11-15T18:11:17;14.50;;;4.18;;
68455;SDS011;55437;55.046;38.838;2022-11-15T18:13:47;13.23;;;4.68;;
68455;SDS011;55437;55.046;38.838;2022-11-15T18:16:21;14.13;;;4.47;;
68455;SDS011;55437;55.046;38.838;2022-11-15T18:18:50;13.63;;;4.18;;
68455;SDS011;55437;55.046;38.838;2022-11-15T18:21:17;13.02;;;4.32;;